Time;durP1;ratioP1;P1;durP2;ratioP2;P2;SDS_P1;SDS_P2;PMS_P1;PMS_P2;Temp;Humidity;BMP_temperature;BMP_pressure;BME280_temperature;BME280_humidity;BME280_pressure;Samples;Min_cycle;Max_cycle;Signal;HPM_P1;HPM_P2
2023/06/02 00:01:51;;;;;;;6.50;3.63;;;16.20;99.90;;;;;;5051319;28;20029;-81
2023/06/02 00:04:17;;;;;;;7.38;4.03;;;16.10;99.90;;;;;;5055583;28;20116;-80
2023/06/02 00:06:45;;;;;;;6.13;3.90;;;16.10;99.90;;;;;;5050489;28;20111;-80
2023/06/02 00:09:11;;;;;;;6.70;3.53;;;16.20;99.90;;;;;;5053406;28;20028;-79
2023/06/02 00:11:38;;;;;;;6.68;3.90;;;16.20;99.90;;;;;;5050942;28;20158;-80
2023/06/02 00:14:07;;;;;;;5.75;3.88;;;16.10;99.90;;;;;;5054182;28;20052;-81
2023/06/02 00:16:41;;;;;;;6.78;3.90;;;16.00;99.90;;;;;;5054671;28;20024;-81
2023/06/02 00:19:07;;;;;;;4.70;3.90;;;15.90;99.90;;;;;;5048765;28;20043;-79
2023/06/02 00:21:36;;;;;;;6.85;3.80;;;15.80;99.90;;;;;;5031297;28;20025;-79
2023/06/02 00:24:02;;;;;;;9.65;4.20;;;15.90;99.90;;;;;;5051023;28;20021;-80
2023/06/02 00:26:28;;;;;;;8.10;4.28;;;15.90;99.90;;;;;;5049994;28;20040;-80
2023/06/02 00:28:58;;;;;;;7.60;4.13;;;15.90;99.90;;;;;;5031866;28;20389;-80
2023/06/02 00:31:23;;;;;;;8.43;3.83;;;16.00;99.90;;;;;;5050724;28;20021;-80
2023/06/02 00:33:49;;;;;;;7.82;3.80;;;16.20;99.90;;;;;;5054511;28;20488;-80
2023/06/02 00:36:15;;;;;;;8.02;3.85;;;16.10;99.90;;;;;;5050070;28;20547;-80
2023/06/02 00:38:42;;;;;;;9.60;4.47;;;16.00;99.90;;;;;;5049976;28;20037;-80
2023/06/02 00:41:09;;;;;;;8.32;4.32;;;15.90;99.90;;;;;;5051600;28;20489;-80
2023/06/02 00:43:35;;;;;;;6.43;3.92;;;15.80;99.90;;;;;;5054593;28;20032;-80
2023/06/02 00:46:01;;;;;;;12.38;4.18;;;15.80;99.90;;;;;;5051305;28;20070;-80
2023/06/02 00:48:27;;;;;;;6.80;3.88;;;15.80;99.90;;;;;;5052089;28;20029;-80
2023/06/02 00:50:53;;;;;;;11.90;3.90;;;15.80;99.90;;;;;;5049613;28;20021;-79
2023/06/02 00:53:19;;;;;;;8.30;3.83;;;15.90;99.90;;;;;;5051958;28;20112;-83
2023/06/02 00:55:46;;;;;;;7.93;3.78;;;15.70;99.90;;;;;;5051689;28;20534;-81
2023/06/02 00:58:13;;;;;;;9.48;4.72;;;15.70;99.90;;;;;;5052812;28;20044;-80
2023/06/02 01:00:43;;;;;;;11.13;3.72;;;15.60;99.90;;;;;;5051353;28;20419;-81
2023/06/02 01:03:09;;;;;;;8.57;4.13;;;15.60;99.90;;;;;;5056655;28;20044;-80
2023/06/02 01:05:40;;;;;;;8.30;3.75;;;15.60;99.90;;;;;;5054687;28;20048;-80
2023/06/02 01:08:07;;;;;;;7.07;4.10;;;15.70;99.90;;;;;;5042342;28;20029;-80
2023/06/02 01:10:37;;;;;;;8.05;3.30;;;15.70;99.90;;;;;;5054345;28;20510;-81
2023/06/02 01:13:04;;;;;;;11.75;4.40;;;15.70;99.90;;;;;;5059528;28;20052;-80
2023/06/02 01:15:31;;;;;;;7.55;3.88;;;15.70;99.90;;;;;;5056916;28;20100;-81
2023/06/02 01:17:57;;;;;;;10.00;4.75;;;15.50;99.90;;;;;;5056816;28;20044;-80
2023/06/02 01:20:24;;;;;;;9.40;4.10;;;15.60;99.90;;;;;;5059858;28;20029;-81
2023/06/02 01:22:54;;;;;;;8.70;3.67;;;15.60;99.90;;;;;;5057241;28;20074;-80
2023/06/02 01:25:21;;;;;;;9.50;4.35;;;15.60;99.90;;;;;;5054639;28;20035;-79
2023/06/02 01:27:47;;;;;;;10.73;4.45;;;15.70;99.90;;;;;;5057830;28;20052;-81
2023/06/02 01:30:13;;;;;;;10.10;4.35;;;15.60;99.90;;;;;;5052406;28;20507;-81
2023/06/02 01:32:45;;;;;;;12.10;4.00;;;15.60;99.90;;;;;;5054375;28;20028;-79
2023/06/02 01:35:13;;;;;;;8.95;4.65;;;15.60;99.90;;;;;;5051839;28;20021;-81
2023/06/02 01:37:54;;;;;;;9.80;4.60;;;15.50;99.90;;;;;;5056986;28;20159;-80
2023/06/02 01:40:21;;;;;;;8.80;4.47;;;15.40;99.90;;;;;;5052591;28;20040;-80
2023/06/02 01:42:48;;;;;;;14.27;4.55;;;15.30;99.90;;;;;;5036891;28;20404;-80
2023/06/02 01:45:15;;;;;;;9.73;4.45;;;15.20;99.90;;;;;;5052846;28;20032;-80
2023/06/02 01:47:41;;;;;;;12.43;4.43;;;15.20;99.90;;;;;;5058923;28;20451;-81
2023/06/02 01:50:07;;;;;;;7.68;4.43;;;15.30;99.90;;;;;;5056352;28;20028;-79
2023/06/02 01:52:33;;;;;;;10.18;4.40;;;15.30;99.90;;;;;;5056119;28;20035;-80
2023/06/02 01:54:59;;;;;;;10.32;4.68;;;15.30;99.90;;;;;;5054235;28;20098;-81
2023/06/02 01:57:26;;;;;;;12.73;4.35;;;15.30;99.90;;;;;;5054415;28;20036;-81
2023/06/02 01:59:52;;;;;;;9.88;4.22;;;15.40;99.90;;;;;;5052527;28;20016;-80
2023/06/02 02:02:17;;;;;;;6.70;3.80;;;15.40;99.90;;;;;;5055622;28;20083;-80
2023/06/02 02:04:43;;;;;;;10.05;4.82;;;15.40;99.90;;;;;;5057411;28;20017;-79
2023/06/02 02:07:11;;;;;;;12.55;4.68;;;15.40;99.90;;;;;;5055971;28;20493;-81
2023/06/02 02:09:38;;;;;;;9.52;4.57;;;15.40;99.90;;;;;;5058232;28;20082;-80
2023/06/02 02:12:05;;;;;;;7.47;4.22;;;15.30;99.90;;;;;;5054074;28;20025;-80
2023/06/02 02:14:30;;;;;;;10.23;4.65;;;15.30;99.90;;;;;;5055458;28;20091;-81
2023/06/02 02:17:00;;;;;;;11.30;5.32;;;15.30;99.90;;;;;;5052093;28;20024;-82
2023/06/02 02:19:31;;;;;;;15.57;4.55;;;15.30;99.90;;;;;;5056048;28;20112;-81
2023/06/02 02:21:57;;;;;;;9.25;4.47;;;15.20;99.90;;;;;;5054139;28;20056;-81
2023/06/02 02:24:23;;;;;;;12.52;4.63;;;15.10;99.90;;;;;;5056365;28;20029;-79
2023/06/02 02:26:48;;;;;;;10.25;4.38;;;15.10;99.90;;;;;;5054442;28;20035;-82
2023/06/02 02:29:14;;;;;;;9.25;4.05;;;15.20;99.90;;;;;;5051165;28;20469;-81
2023/06/02 02:31:40;;;;;;;12.90;4.80;;;15.20;99.90;;;;;;5055590;28;20021;-82
2023/06/02 02:34:06;;;;;;;12.52;4.00;;;15.20;99.90;;;;;;5056256;28;20028;-82
2023/06/02 02:36:32;;;;;;;16.58;4.47;;;15.20;99.90;;;;;;5035752;28;20420;-81
2023/06/02 02:38:59;;;;;;;11.35;3.70;;;15.10;99.90;;;;;;5052473;28;20028;-79
2023/06/02 02:41:26;;;;;;;11.13;4.53;;;15.10;99.90;;;;;;5053758;28;20376;-81
2023/06/02 02:43:53;;;;;;;9.30;3.60;;;15.10;99.90;;;;;;5054181;28;20028;-80
2023/06/02 02:46:18;;;;;;;10.68;3.83;;;15.10;99.90;;;;;;5053385;28;20484;-80
2023/06/02 02:48:45;;;;;;;12.82;4.38;;;15.20;99.90;;;;;;5056391;28;20032;-81
2023/06/02 02:51:11;;;;;;;11.65;3.72;;;15.10;99.90;;;;;;5052980;28;20524;-81
2023/06/02 02:53:36;;;;;;;13.05;3.90;;;15.10;99.90;;;;;;5054128;28;20028;-81
2023/06/02 02:56:02;;;;;;;13.05;3.92;;;15.00;99.90;;;;;;5055517;28;20037;-81
2023/06/02 02:58:28;;;;;;;11.30;4.30;;;15.10;99.90;;;;;;5054619;28;20388;-80
2023/06/02 03:00:55;;;;;;;13.73;3.83;;;14.90;99.90;;;;;;5054233;28;20029;-81
2023/06/02 03:03:21;;;;;;;12.10;3.95;;;14.80;99.90;;;;;;5055766;28;20025;-81
2023/06/02 03:05:47;;;;;;;18.05;3.72;;;14.90;99.90;;;;;;5052625;28;20112;-80
2023/06/02 03:08:15;;;;;;;14.98;4.57;;;14.80;99.90;;;;;;5052527;28;20120;-79
2023/06/02 03:10:42;;;;;;;12.38;4.13;;;14.80;99.90;;;;;;5053434;28;20067;-80
2023/06/02 03:13:07;;;;;;;17.67;4.93;;;14.90;99.90;;;;;;5053373;28;20107;-81
2023/06/02 03:15:33;;;;;;;16.48;4.10;;;14.80;99.90;;;;;;5052062;28;20614;-81
2023/06/02 03:17:59;;;;;;;20.00;4.00;;;14.90;99.90;;;;;;5053392;28;20068;-80
2023/06/02 03:20:27;;;;;;;12.45;3.38;;;14.90;99.90;;;;;;5052844;28;20426;-81
2023/06/02 03:22:55;;;;;;;13.48;3.50;;;14.90;99.90;;;;;;5055011;28;20021;-79
2023/06/02 03:25:22;;;;;;;14.52;3.97;;;14.90;99.90;;;;;;5057291;28;20052;-80
2023/06/02 03:27:50;;;;;;;20.98;3.78;;;14.80;99.90;;;;;;5055314;28;20025;-81
2023/06/02 03:30:16;;;;;;;13.43;3.80;;;14.90;99.90;;;;;;5036789;28;20032;-81
2023/06/02 03:32:42;;;;;;;12.25;4.13;;;14.90;99.90;;;;;;5051665;28;20032;-82
2023/06/02 03:35:08;;;;;;;10.52;3.75;;;14.90;99.90;;;;;;5056237;28;20033;-82
2023/06/02 03:37:34;;;;;;;13.38;4.20;;;15.00;99.90;;;;;;5053873;28;20132;-81
2023/06/02 03:39:59;;;;;;;12.40;4.47;;;15.00;99.90;;;;;;5052527;28;20100;-81
2023/06/02 03:42:26;;;;;;;14.07;4.15;;;15.00;99.90;;;;;;5053919;28;20060;-80
2023/06/02 03:44:53;;;;;;;13.65;3.92;;;15.10;99.90;;;;;;5054879;28;20053;-80
2023/06/02 03:47:18;;;;;;;9.40;3.80;;;15.10;99.90;;;;;;5052965;28;20086;-82
2023/06/02 03:49:44;;;;;;;11.77;3.80;;;14.80;99.90;;;;;;5053819;28;20423;-81
2023/06/02 03:52:10;;;;;;;12.57;3.50;;;14.90;99.90;;;;;;5050144;28;20392;-81
2023/06/02 03:54:35;;;;;;;14.38;4.15;;;14.90;99.90;;;;;;5034666;28;20468;-81
2023/06/02 03:57:01;;;;;;;12.95;4.75;;;15.00;99.90;;;;;;5054555;28;20626;-81
2023/06/02 03:59:26;;;;;;;12.93;4.05;;;14.90;99.90;;;;;;5052778;28;20063;-79
2023/06/02 04:01:52;;;;;;;13.60;3.80;;;14.90;99.90;;;;;;5051420;28;20037;-78
2023/06/02 04:04:18;;;;;;;10.98;3.33;;;14.80;99.90;;;;;;5052947;28;20052;-79
2023/06/02 04:06:43;;;;;;;12.05;4.00;;;14.80;99.90;;;;;;5052038;28;20025;-80
2023/06/02 04:09:13;;;;;;;9.68;4.40;;;14.90;99.90;;;;;;5048768;28;20127;-81
2023/06/02 04:11:39;;;;;;;22.27;4.30;;;14.80;99.90;;;;;;5049705;28;20024;-81
2023/06/02 04:14:04;;;;;;;12.73;3.83;;;14.80;99.90;;;;;;5053659;28;20024;-80
2023/06/02 04:16:30;;;;;;;12.95;3.90;;;14.80;99.90;;;;;;5053063;28;20096;-81
2023/06/02 04:18:56;;;;;;;15.25;4.22;;;14.90;99.90;;;;;;5053686;28;20159;-80
2023/06/02 04:21:21;;;;;;;15.65;4.50;;;15.00;99.90;;;;;;5051593;28;20048;-81
2023/06/02 04:23:47;;;;;;;11.35;4.13;;;14.90;99.90;;;;;;5054982;28;20121;-81
2023/06/02 04:26:16;;;;;;;14.45;4.55;;;14.80;99.90;;;;;;5051383;28;20492;-81
2023/06/02 04:28:42;;;;;;;12.55;4.03;;;14.60;99.90;;;;;;5054384;28;20358;-80
2023/06/02 04:31:09;;;;;;;12.82;4.65;;;14.60;99.90;;;;;;5052809;28;20029;-81
2023/06/02 04:33:35;;;;;;;12.90;4.25;;;14.50;99.90;;;;;;5050316;28;20362;-80
2023/06/02 04:36:03;;;;;;;14.73;4.75;;;14.60;99.90;;;;;;5052046;28;20363;-83
2023/06/02 04:38:29;;;;;;;14.55;4.72;;;14.60;99.90;;;;;;5052220;28;20040;-83
2023/06/02 04:41:01;;;;;;;15.52;5.28;;;14.50;99.90;;;;;;5054505;28;20032;-81
2023/06/02 04:43:28;;;;;;;14.02;4.20;;;14.50;99.90;;;;;;5052257;28;20102;-82
2023/06/02 04:45:56;;;;;;;11.95;4.15;;;14.40;99.90;;;;;;5051858;28;20028;-83
2023/06/02 04:48:22;;;;;;;18.65;5.05;;;14.50;99.90;;;;;;5054988;28;21300;-82
2023/06/02 04:50:49;;;;;;;17.05;4.43;;;14.40;99.90;;;;;;5034795;28;20025;-81
2023/06/02 04:53:15;;;;;;;11.88;4.43;;;14.50;99.90;;;;;;5054464;28;20040;-82
2023/06/02 04:55:44;;;;;;;14.13;4.45;;;14.50;99.90;;;;;;5053547;28;20029;-82
2023/06/02 04:58:10;;;;;;;13.35;4.78;;;14.40;99.90;;;;;;5055167;28;20036;-82
2023/06/02 05:00:36;;;;;;;14.45;4.40;;;14.40;99.90;;;;;;5050002;28;20032;-82
2023/06/02 05:03:02;;;;;;;14.43;3.95;;;14.40;99.90;;;;;;5049971;28;20103;-83
2023/06/02 05:05:28;;;;;;;10.27;3.85;;;14.40;99.90;;;;;;5048804;28;20104;-81
2023/06/02 05:07:53;;;;;;;13.43;4.55;;;14.40;99.90;;;;;;5053264;28;20443;-81
2023/06/02 05:10:19;;;;;;;18.80;4.90;;;14.50;99.90;;;;;;5053525;28;20031;-80
2023/06/02 05:12:47;;;;;;;15.88;5.15;;;14.60;99.90;;;;;;5051057;28;20047;-83
2023/06/02 05:15:13;;;;;;;15.07;4.53;;;14.60;99.90;;;;;;5052168;28;20033;-82
2023/06/02 05:17:38;;;;;;;16.85;4.93;;;14.50;99.90;;;;;;5054971;28;20412;-82
2023/06/02 05:20:05;;;;;;;11.15;4.35;;;14.40;99.90;;;;;;5049693;28;20150;-82
2023/06/02 05:22:31;;;;;;;15.38;5.22;;;14.40;99.90;;;;;;5053084;28;20039;-81
2023/06/02 05:24:57;;;;;;;14.93;4.88;;;14.40;99.90;;;;;;5049247;28;20036;-82
2023/06/02 05:27:22;;;;;;;11.25;5.55;;;14.40;99.90;;;;;;5050931;28;20033;-82
2023/06/02 05:29:48;;;;;;;13.70;5.25;;;14.30;99.90;;;;;;5050720;28;20024;-81
2023/06/02 05:32:14;;;;;;;14.65;5.03;;;14.20;99.90;;;;;;5046130;28;20033;-82
2023/06/02 05:34:42;;;;;;;10.88;4.50;;;14.20;99.90;;;;;;5050059;28;20021;-81
2023/06/02 05:37:08;;;;;;;15.57;5.38;;;14.30;99.90;;;;;;5049484;28;20052;-81
2023/06/02 05:39:34;;;;;;;15.52;4.90;;;14.10;99.90;;;;;;5051632;28;20370;-82
2023/06/02 05:42:00;;;;;;;14.02;5.00;;;14.10;99.90;;;;;;5051998;28;20049;-81
2023/06/02 05:44:25;;;;;;;12.82;4.70;;;14.10;99.90;;;;;;5049086;28;20029;-82
2023/06/02 05:46:51;;;;;;;15.75;4.78;;;14.10;99.90;;;;;;5051815;28;20046;-81
2023/06/02 05:49:17;;;;;;;8.73;4.45;;;14.10;99.90;;;;;;5058919;28;20033;-79
2023/06/02 05:51:43;;;;;;;11.13;5.55;;;14.20;99.90;;;;;;5057236;28;20033;-82
2023/06/02 05:54:09;;;;;;;10.20;4.80;;;14.20;99.90;;;;;;5054691;28;20028;-82
2023/06/02 05:56:35;;;;;;;12.80;4.40;;;14.20;99.90;;;;;;5056448;28;20017;-80
2023/06/02 05:59:01;;;;;;;13.70;5.00;;;14.10;99.90;;;;;;5037870;28;20037;-79
2023/06/02 06:01:28;;;;;;;11.65;5.43;;;14.20;99.90;;;;;;5055748;28;20372;-82
2023/06/02 06:03:53;;;;;;;13.05;4.25;;;14.20;99.90;;;;;;5053708;28;20408;-79
2023/06/02 06:06:19;;;;;;;11.18;4.30;;;14.20;99.90;;;;;;5057033;28;20029;-81
2023/06/02 06:08:45;;;;;;;12.52;4.20;;;14.30;99.90;;;;;;5055305;28;20147;-81
2023/06/02 06:11:12;;;;;;;13.60;4.28;;;14.40;99.90;;;;;;5054437;28;20033;-80
2023/06/02 06:13:37;;;;;;;13.07;4.43;;;14.40;99.90;;;;;;5055053;28;20020;-78
2023/06/02 06:16:03;;;;;;;11.32;4.28;;;14.50;99.90;;;;;;5051856;28;20577;-77
2023/06/02 06:18:29;;;;;;;14.15;4.43;;;14.50;99.90;;;;;;5053315;28;20036;-78
2023/06/02 06:20:55;;;;;;;7.43;4.07;;;14.60;99.90;;;;;;5055276;28;20074;-78
2023/06/02 06:23:20;;;;;;;10.07;3.70;;;14.40;99.90;;;;;;5036639;28;20021;-78
2023/06/02 06:25:46;;;;;;;11.73;4.00;;;14.40;99.90;;;;;;5053099;28;20032;-79
2023/06/02 06:28:12;;;;;;;13.43;4.32;;;14.40;99.90;;;;;;5052650;28;20048;-78
2023/06/02 06:30:39;;;;;;;11.63;3.55;;;14.30;99.90;;;;;;5051686;28;20017;-79
2023/06/02 06:33:07;;;;;;;10.23;3.50;;;14.40;99.90;;;;;;5054694;28;20087;-79
2023/06/02 06:35:32;;;;;;;11.90;3.97;;;14.50;99.90;;;;;;5035413;28;20032;-78
2023/06/02 06:37:58;;;;;;;11.90;3.67;;;14.40;99.90;;;;;;5054968;28;20373;-77
2023/06/02 06:40:24;;;;;;;12.27;3.72;;;14.50;99.90;;;;;;5052063;28;20407;-79
2023/06/02 06:42:49;;;;;;;10.18;3.38;;;14.50;99.90;;;;;;5050389;28;20044;-78
2023/06/02 06:45:15;;;;;;;10.57;3.50;;;14.60;99.90;;;;;;5052322;28;20025;-78
2023/06/02 06:47:41;;;;;;;10.23;4.30;;;14.70;99.90;;;;;;5052146;28;20021;-78
2023/06/02 06:50:07;;;;;;;11.52;3.50;;;14.80;99.90;;;;;;5050608;28;20028;-80
2023/06/02 06:52:32;;;;;;;8.80;3.45;;;14.60;99.90;;;;;;5036493;28;20074;-79
2023/06/02 06:54:58;;;;;;;13.65;4.22;;;14.70;99.90;;;;;;5051907;28;20444;-76
2023/06/02 06:57:24;;;;;;;17.88;4.53;;;14.80;99.90;;;;;;5055100;28;20029;-79
2023/06/02 06:59:50;;;;;;;9.45;3.70;;;14.80;99.90;;;;;;5052503;28;20375;-78
2023/06/02 07:02:16;;;;;;;12.80;3.85;;;14.80;99.90;;;;;;5053929;28;20495;-78
2023/06/02 07:04:41;;;;;;;13.35;4.03;;;14.90;99.90;;;;;;5053707;28;20031;-79
2023/06/02 07:07:07;;;;;;;12.48;4.00;;;14.90;99.90;;;;;;5056951;28;20060;-79
2023/06/02 07:09:33;;;;;;;10.25;4.30;;;14.90;99.90;;;;;;5051878;28;20024;-80
2023/06/02 07:11:59;;;;;;;11.80;4.18;;;15.00;99.90;;;;;;5050887;28;20024;-79
2023/06/02 07:14:27;;;;;;;12.43;4.03;;;14.90;99.90;;;;;;5055514;28;20542;-78
2023/06/02 07:16:54;;;;;;;10.23;4.38;;;14.70;99.90;;;;;;5053528;28;20094;-77
2023/06/02 07:19:21;;;;;;;12.02;4.32;;;14.80;99.90;;;;;;5037942;28;20032;-79
2023/06/02 07:21:47;;;;;;;12.73;4.55;;;14.80;99.90;;;;;;5052245;28;20062;-82
2023/06/02 07:24:14;;;;;;;12.98;4.80;;;14.90;99.90;;;;;;5055931;28;20990;-78
2023/06/02 07:26:41;;;;;;;13.60;4.38;;;14.80;99.90;;;;;;5055422;28;20028;-81
2023/06/02 07:29:07;;;;;;;12.60;4.47;;;15.00;99.90;;;;;;5053184;28;20032;-78
2023/06/02 07:31:32;;;;;;;11.80;5.15;;;14.90;99.90;;;;;;5049987;28;20028;-83
2023/06/02 07:33:58;;;;;;;11.73;4.95;;;14.50;99.90;;;;;;5036448;28;20059;-81
2023/06/02 07:36:24;;;;;;;13.80;4.57;;;14.70;99.90;;;;;;5051133;28;20086;-81
2023/06/02 07:38:50;;;;;;;12.90;4.75;;;14.60;99.90;;;;;;5053650;28;20037;-79
2023/06/02 07:41:15;;;;;;;10.38;4.93;;;14.60;99.90;;;;;;5049035;28;20138;-78
2023/06/02 07:43:41;;;;;;;12.43;5.03;;;14.70;99.90;;;;;;5051010;28;20051;-78
2023/06/02 07:46:07;;;;;;;12.88;4.50;;;14.90;99.90;;;;;;5031074;28;20462;-80
2023/06/02 07:48:33;;;;;;;9.63;4.45;;;15.00;99.90;;;;;;5037186;28;20024;-82
2023/06/02 07:50:58;;;;;;;12.68;4.38;;;15.10;99.90;;;;;;5031792;28;20013;-86
2023/06/02 07:53:25;;;;;;;10.68;4.68;;;15.20;99.90;;;;;;5052077;28;20170;-80
2023/06/02 07:55:51;;;;;;;8.73;4.15;;;15.00;99.90;;;;;;5051000;28;20372;-82
2023/06/02 07:58:17;;;;;;;11.40;4.47;;;15.00;99.90;;;;;;5048744;28;20043;-81
2023/06/02 08:00:42;;;;;;;11.68;4.65;;;15.10;99.90;;;;;;5048701;28;20027;-78
2023/06/02 08:03:08;;;;;;;12.82;4.70;;;15.30;99.90;;;;;;5036372;28;20393;-78
2023/06/02 08:05:34;;;;;;;35.03;5.18;;;15.30;99.90;;;;;;5051658;28;20047;-76
2023/06/02 08:07:59;;;;;;;14.32;4.53;;;15.40;99.90;;;;;;5052642;28;20029;-79
2023/06/02 08:10:25;;;;;;;18.27;4.68;;;15.10;99.90;;;;;;5052174;28;20190;-77
2023/06/02 08:12:51;;;;;;;13.93;5.07;;;15.00;99.90;;;;;;5052114;28;20040;-82
2023/06/02 08:15:17;;;;;;;14.75;4.30;;;15.20;99.90;;;;;;5050675;28;20035;-81
2023/06/02 08:17:43;;;;;;;12.40;4.32;;;15.30;99.90;;;;;;5051849;28;20032;-78
2023/06/02 08:20:08;;;;;;;9.82;4.10;;;15.30;99.90;;;;;;5052520;28;20049;-84
2023/06/02 08:22:36;;;;;;;11.80;4.15;;;15.30;99.90;;;;;;5053214;28;20500;-81
2023/06/02 08:25:03;;;;;;;14.25;4.90;;;15.50;99.90;;;;;;5049047;28;20384;-85
2023/06/02 08:27:29;;;;;;;13.95;4.57;;;15.60;99.90;;;;;;5053436;28;20013;-83
2023/06/02 08:29:58;;;;;;;12.75;3.78;;;15.60;99.90;;;;;;5033955;28;20036;-86
2023/06/02 08:32:24;;;;;;;14.23;4.20;;;15.70;99.90;;;;;;5032541;28;20492;-80
2023/06/02 08:34:50;;;;;;;14.98;3.95;;;15.70;99.90;;;;;;5050934;28;20025;-80
2023/06/02 08:37:20;;;;;;;12.70;3.90;;;15.80;99.90;;;;;;5055758;28;20536;-77
2023/06/02 08:39:48;;;;;;;14.32;4.18;;;15.80;99.90;;;;;;5055484;28;20031;-78
2023/06/02 08:42:14;;;;;;;9.93;3.83;;;15.90;99.90;;;;;;5053745;28;20151;-79
2023/06/02 08:44:43;;;;;;;11.60;3.97;;;16.00;99.90;;;;;;5053467;28;20037;-83
2023/06/02 08:47:11;;;;;;;12.57;4.03;;;16.10;99.90;;;;;;5032937;28;20484;-83
2023/06/02 08:49:46;;;;;;;15.25;4.47;;;15.80;99.90;;;;;;5049532;28;20155;-83
2023/06/02 08:52:23;;;;;;;14.98;4.20;;;15.90;99.90;;;;;;5035807;28;20027;-82
2023/06/02 08:54:50;;;;;;;13.52;4.22;;;16.10;99.90;;;;;;5052216;28;20020;-83
2023/06/02 08:57:16;;;;;;;11.07;4.38;;;16.20;99.90;;;;;;5053241;28;20469;-83
2023/06/02 08:59:46;;;;;;;13.13;3.53;;;16.20;99.90;;;;;;5054520;28;20039;-82
2023/06/02 09:02:12;;;;;;;24.92;4.43;;;16.30;99.90;;;;;;5053905;28;20021;-82
2023/06/02 09:04:38;;;;;;;15.02;4.72;;;16.40;99.90;;;;;;5055006;28;20140;-87
2023/06/02 09:07:24;;;;;;;17.02;4.55;;;16.50;99.90;;;;;;5033006;28;20136;-85
2023/06/02 09:09:52;;;;;;;16.23;5.60;;;16.40;99.90;;;;;;5051662;28;20029;-84
2023/06/02 09:12:20;;;;;;;16.40;4.40;;;16.30;99.90;;;;;;5053224;28;20033;-86
2023/06/02 09:15:09;;;;;;;13.38;4.53;;;16.40;99.90;;;;;;5053996;28;20017;-78
2023/06/02 09:17:35;;;;;;;17.15;4.40;;;16.60;99.90;;;;;;5035495;28;20036;-82
2023/06/02 09:20:20;;;;;;;15.93;5.55;;;16.70;99.90;;;;;;5050957;28;20491;-81
2023/06/02 09:22:56;;;;;;;12.95;3.97;;;16.60;99.90;;;;;;5051024;28;20117;-84
2023/06/02 09:25:24;;;;;;;15.38;4.78;;;16.40;99.90;;;;;;5054779;28;20147;-84
2023/06/02 09:27:58;;;;;;;15.82;4.75;;;16.50;99.90;;;;;;5053395;28;20035;-83
2023/06/02 09:30:24;;;;;;;14.00;4.47;;;16.60;99.90;;;;;;5052313;28;20032;-77
2023/06/02 09:33:05;;;;;;;15.27;4.35;;;16.70;99.90;;;;;;5038601;28;20393;-81
2023/06/02 09:35:45;;;;;;;16.55;5.22;;;16.70;99.90;;;;;;5038465;28;20032;-78
2023/06/02 09:38:43;;;;;;;15.75;4.28;;;17.00;99.90;;;;;;5052307;28;20588;-80
2023/06/02 09:41:15;;;;;;;12.73;4.32;;;17.00;99.90;;;;;;5049365;28;20602;-80
2023/06/02 09:43:41;;;;;;;12.57;4.03;;;17.00;99.90;;;;;;5054563;28;20036;-82
2023/06/02 09:46:07;;;;;;;12.38;4.78;;;17.10;99.90;;;;;;5053392;28;20009;-81
2023/06/02 09:48:34;;;;;;;15.10;4.75;;;17.10;99.90;;;;;;5054450;28;20531;-81
2023/06/02 09:51:19;;;;;;;9.05;4.30;;;17.40;99.90;;;;;;5056000;28;20017;-80
2023/06/02 09:53:45;;;;;;;18.92;5.15;;;17.40;99.90;;;;;;5054882;28;20029;-77
2023/06/02 09:56:12;;;;;;;14.52;4.80;;;17.40;99.90;;;;;;5056132;28;20017;-78
2023/06/02 09:58:38;;;;;;;16.88;5.90;;;17.40;99.90;;;;;;5053477;28;20032;-75
2023/06/02 10:01:04;;;;;;;11.98;5.10;;;17.40;99.90;;;;;;5054633;28;20021;-81
2023/06/02 10:03:30;;;;;;;16.40;5.35;;;17.40;99.90;;;;;;5052937;28;20020;-80
2023/06/02 10:06:19;;;;;;;11.55;4.07;;;17.70;99.90;;;;;;5054001;28;20153;-78
2023/06/02 10:09:10;;;;;;;15.30;4.90;;;18.00;99.90;;;;;;5056583;28;20031;-80
2023/06/02 10:11:54;;;;;;;14.18;5.22;;;18.40;99.90;;;;;;5056453;28;20020;-80
2023/06/02 10:14:44;;;;;;;13.30;4.25;;;18.20;99.90;;;;;;5057487;28;20032;-79
2023/06/02 10:17:41;;;;;;;17.52;4.72;;;18.20;99.90;;;;;;5055585;28;20040;-77
2023/06/02 10:20:06;;;;;;;12.48;4.63;;;17.90;99.90;;;;;;5051452;28;20029;-76
2023/06/02 10:22:45;;;;;;;14.32;4.40;;;17.90;99.90;;;;;;5053685;28;20035;-76
2023/06/02 10:25:40;;;;;;;13.27;4.05;;;18.30;99.90;;;;;;5053389;28;20389;-77
2023/06/02 10:28:08;;;;;;;13.70;4.00;;;18.70;99.90;;;;;;5054912;28;20496;-76
2023/06/02 10:30:37;;;;;;;14.00;3.85;;;18.70;99.90;;;;;;5054632;28;20017;-75
2023/06/02 10:33:03;;;;;;;18.13;5.60;;;19.00;99.90;;;;;;5040410;28;20055;-76
2023/06/02 10:36:01;;;;;;;11.07;3.85;;;19.40;99.90;;;;;;5053765;28;20096;-76
2023/06/02 10:38:28;;;;;;;18.00;4.25;;;19.50;99.90;;;;;;5038953;28;20037;-75
2023/06/02 10:40:54;;;;;;;13.50;4.43;;;19.60;99.90;;;;;;5037982;28;20123;-74
2023/06/02 10:43:21;;;;;;;26.27;5.13;;;19.60;99.90;;;;;;5055899;28;20029;-74
2023/06/02 10:45:46;;;;;;;12.00;4.70;;;19.70;99.90;;;;;;5051375;28;20053;-74
2023/06/02 10:48:40;;;;;;;15.40;4.70;;;19.70;99.90;;;;;;5052621;28;20071;-74
2023/06/02 10:51:10;;;;;;;16.85;4.72;;;19.90;99.90;;;;;;5052922;28;20096;-74
2023/06/02 10:54:02;;;;;;;11.65;3.97;;;20.10;99.90;;;;;;5057144;28;20079;-74
2023/06/02 10:56:40;;;;;;;11.67;4.17;;;19.90;99.60;;;;;;5030031;28;20037;-75
2023/06/02 10:59:07;;;;;;;17.35;4.30;;;19.70;99.90;;;;;;5033384;28;20104;-74
2023/06/02 11:01:51;;;;;;;20.15;4.63;;;19.90;99.90;;;;;;5046996;28;20035;-74
2023/06/02 11:04:50;;;;;;;12.52;4.63;;;20.00;99.90;;;;;;5049003;28;20047;-74
2023/06/02 11:07:23;;;;;;;15.05;4.30;;;20.10;99.90;;;;;;5025114;28;20052;-74
2023/06/02 11:09:58;;;;;;;9.77;3.88;;;20.20;99.90;;;;;;5049079;28;20021;-75
2023/06/02 11:12:49;;;;;;;12.20;3.95;;;20.60;99.90;;;;;;5050388;28;20104;-74
2023/06/02 11:15:15;;;;;;;15.13;3.83;;;20.80;99.90;;;;;;5021304;28;20041;-74
2023/06/02 11:17:42;;;;;;;16.50;4.85;;;20.50;99.90;;;;;;5051405;28;20098;-74
2023/06/02 11:20:08;;;;;;;11.30;4.35;;;20.00;99.70;;;;;;5052494;28;20416;-74
2023/06/02 11:22:34;;;;;;;14.50;4.60;;;20.50;99.70;;;;;;5052411;28;20020;-75
2023/06/02 11:25:03;;;;;;;14.23;4.32;;;20.70;99.30;;;;;;5052529;28;20016;-74
2023/06/02 11:27:43;;;;;;;10.35;3.83;;;20.90;99.90;;;;;;5051221;28;20027;-77
2023/06/02 11:30:12;;;;;;;13.68;3.60;;;21.00;99.40;;;;;;5052144;28;20465;-75
2023/06/02 11:32:38;;;;;;;17.13;4.88;;;21.30;99.70;;;;;;5050724;28;20024;-74
2023/06/02 11:35:08;;;;;;;10.40;3.97;;;21.10;98.70;;;;;;5055240;28;20039;-75
2023/06/02 11:37:40;;;;;;;10.13;3.78;;;20.90;99.50;;;;;;5032865;28;20469;-77
2023/06/02 11:40:09;;;;;;;12.75;4.32;;;21.10;99.90;;;;;;5037631;28;20042;-75
2023/06/02 11:42:42;;;;;;;10.23;4.15;;;20.90;99.50;;;;;;5052330;28;20389;-75
2023/06/02 11:45:22;;;;;;;13.75;4.97;;;20.60;99.90;;;;;;5049677;28;20028;-75
2023/06/02 11:47:59;;;;;;;10.38;4.03;;;20.70;99.90;;;;;;5053080;28;20059;-75
2023/06/02 11:50:25;;;;;;;14.88;4.40;;;21.20;99.80;;;;;;5050639;28;20115;-75
2023/06/02 11:52:51;;;;;;;17.23;5.63;;;21.30;98.90;;;;;;5053528;28;20028;-75
2023/06/02 11:55:17;;;;;;;12.45;5.20;;;21.60;98.90;;;;;;5054305;28;20021;-76
2023/06/02 11:57:43;;;;;;;16.45;6.15;;;21.60;99.40;;;;;;5035093;28;20112;-76
2023/06/02 12:00:20;;;;;;;14.57;4.88;;;21.30;98.90;;;;;;5053561;28;20031;-75
2023/06/02 12:02:57;;;;;;;15.38;5.22;;;21.70;98.90;;;;;;5033721;28;20028;-76
2023/06/02 12:05:36;;;;;;;14.25;6.07;;;21.80;98.60;;;;;;5050695;28;20031;-75
2023/06/02 12:08:12;;;;;;;14.88;5.03;;;21.80;99.40;;;;;;5053076;28;20033;-77
2023/06/02 12:10:39;;;;;;;13.68;5.38;;;21.80;99.20;;;;;;5051411;28;20163;-75
2023/06/02 12:13:05;;;;;;;28.23;6.30;;;21.80;98.30;;;;;;5035857;28;20005;-75
2023/06/02 12:15:35;;;;;;;13.85;5.55;;;21.80;98.90;;;;;;5034343;28;20025;-75
2023/06/02 12:18:04;;;;;;;13.07;5.40;;;21.90;99.90;;;;;;5055277;28;20035;-76
2023/06/02 12:20:41;;;;;;;12.98;5.15;;;21.90;98.60;;;;;;5052272;28;20481;-74
2023/06/02 12:23:08;;;;;;;10.90;5.15;;;21.90;98.80;;;;;;5050097;28;20028;-75
2023/06/02 12:25:34;;;;;;;13.70;5.47;;;21.90;98.80;;;;;;5051254;28;20035;-75
2023/06/02 12:28:13;;;;;;;10.35;5.43;;;21.40;99.70;;;;;;5052610;28;20032;-75
2023/06/02 12:30:40;;;;;;;13.98;5.82;;;21.20;99.10;;;;;;5051541;28;20051;-76
2023/06/02 12:33:10;;;;;;;13.23;5.32;;;21.30;99.10;;;;;;5034754;28;20143;-74
2023/06/02 12:35:37;;;;;;;14.88;5.45;;;21.70;99.60;;;;;;5052955;28;20063;-75
2023/06/02 12:38:04;;;;;;;13.23;5.72;;;21.70;98.50;;;;;;5052543;28;20194;-75
2023/06/02 12:40:31;;;;;;;13.00;5.28;;;21.30;99.90;;;;;;5053349;28;20029;-76
2023/06/02 12:42:57;;;;;;;18.70;5.32;;;21.00;99.90;;;;;;5054604;28;20115;-76
2023/06/02 12:45:23;;;;;;;10.00;5.05;;;21.30;99.90;;;;;;5057390;28;20616;-76